Time;durP1;ratioP1;P1;durP2;ratioP2;P2;SDS_P1;SDS_P2;PMS_P1;PMS_P2;Temp;Humidity;BMP_temperature;BMP_pressure;BME280_temperature;BME280_humidity;BME280_pressure;Samples;Min_cycle;Max_cycle;Signal;HPM_P1;HPM_P2
2022/07/26 00:00:13;;;;;;;;;;;;;;;;;;1035701;28;4230;-57
2022/07/26 00:01:04;;;;;;;;;;;;;;;;;;1041522;28;1850;-56
2022/07/26 00:01:34;;;;;;;;;;;;;;;;;;1039995;28;4215;-55
2022/07/26 00:02:05;;;;;;;;;;;;;;;;;;1041552;28;2989;-54
2022/07/26 00:02:35;;;;;;;;;;;;;;;;;;1038438;28;4160;-55
2022/07/26 00:03:05;;;;;;;;;;;;;;;;;;1037360;28;2658;-56
2022/07/26 00:03:35;;;;;;;;;;;;;;;;;;1035177;28;4210;-57
2022/07/26 00:04:06;;;;;;;;;;;;;;;;;;1038077;28;3858;-55
2022/07/26 00:04:36;;;;;;;;;;;;;;;;;;1036645;28;3895;-55
2022/07/26 00:05:07;;;;;;;;;;;;;;;;;;1037419;28;3806;-53
2022/07/26 00:05:37;;;;;;;;;;;;;;;;;;1036687;28;2914;-57
2022/07/26 00:06:08;;;;;;;;;;;;;;;;;;1036325;28;4018;-56
2022/07/26 00:06:38;;;;;;;;;;;;;;;;;;1037975;28;2354;-57
2022/07/26 00:07:08;;;;;;;;;;;;;;;;;;1037225;28;4325;-56
2022/07/26 00:07:39;;;;;;;;;;;;;;;;;;1037098;28;3026;-57
2022/07/26 00:08:09;;;;;;;;;;;;;;;;;;1037419;28;3903;-57
2022/07/26 00:08:39;;;;;;;;;;;;;;;;;;1034050;28;3798;-52
2022/07/26 00:09:10;;;;;;;;;;;;;;;;;;1037557;28;4247;-56
2022/07/26 00:09:40;;;;;;;;;;;;;;;;;;1037056;28;2439;-56
2022/07/26 00:10:11;;;;;;;;;;;;;;;;;;1037035;28;3903;-58
2022/07/26 00:10:43;;;;;;;;;;;;;;;;;;1037939;28;2924;-58
2022/07/26 00:11:13;;;;;;;;;;;;;;;;;;1035741;28;4451;-54
2022/07/26 00:11:43;;;;;;;;;;;;;;;;;;1037016;28;2453;-57
2022/07/26 00:12:14;;;;;;;;;;;;;;;;;;1040429;28;3948;-58
2022/07/26 00:12:44;;;;;;;;;;;;;;;;;;1040468;28;2507;-57
2022/07/26 00:13:16;;;;;;;;;;;;;;;;;;1039903;28;4257;-57
2022/07/26 00:13:46;;;;;;;;;;;;;;;;;;1040804;28;2365;-55
2022/07/26 00:14:17;;;;;;;;;;;;;;;;;;1037578;28;4071;-55
2022/07/26 00:14:47;;;;;;;;;;;;;;;;;;1036725;28;3245;-54
2022/07/26 00:15:18;;;;;;;;;;;;;;;;;;1036158;28;3804;-58
2022/07/26 00:15:48;;;;;;;;;;;;;;;;;;1038730;28;1599;-58
2022/07/26 00:16:18;;;;;;;;;;;;;;;;;;1036976;28;3895;-56
2022/07/26 00:16:49;;;;;;;;;;;;;;;;;;1036028;28;2228;-57
2022/07/26 00:17:19;;;;;;;;;;;;;;;;;;1036380;28;3822;-55
2022/07/26 00:17:49;;;;;;;;;;;;;;;;;;1037105;28;4090;-57
2022/07/26 00:18:19;;;;;;;;;;;;;;;;;;1036345;28;4929;-57
2022/07/26 00:18:50;;;;;;;;;;;;;;;;;;1035365;28;3155;-55
2022/07/26 00:19:20;;;;;;;;;;;;;;;;;;1036504;28;3918;-57
2022/07/26 00:19:50;;;;;;;;;;;;;;;;;;1037752;28;3293;-54
2022/07/26 00:20:20;;;;;;;;;;;;;;;;;;1037522;28;4041;-57
2022/07/26 00:20:51;;;;;;;;;;;;;;;;;;1034824;28;3247;-58
2022/07/26 00:21:22;;;;;;;;;;;;;;;;;;1037879;28;3902;-58
2022/07/26 00:22:32;;;;;;;;;;;;;;;;;;1035517;28;2968;-55
2022/07/26 00:22:43;;;;;;;;;;;;;;;;;;1039652;28;3781;-54
2022/07/26 00:23:13;;;;;;;;;;;;;;;;;;1038425;28;4426;-57
2022/07/26 00:23:44;;;;;;;;;;;;;;;;;;1037116;28;3301;-58
2022/07/26 00:24:14;;;;;;;;;;;;;;;;;;1036621;28;3945;-55
2022/07/26 00:24:44;;;;;;;;;;;;;;;;;;1037177;28;3017;-58
2022/07/26 00:25:14;;;;;;;;;;;;;;;;;;1039679;28;4415;-56
2022/07/26 00:25:45;;;;;;;;;;;;;;;;;;1040292;28;3219;-57
2022/07/26 00:26:15;;;;;;;;;;;;;;;;;;1035261;28;4089;-56
2022/07/26 00:26:46;;;;;;;;;;;;;;;;;;1036715;28;4014;-57
2022/07/26 00:27:16;;;;;;;;;;;;;;;;;;1032276;28;3779;-58
2022/07/26 00:27:46;;;;;;;;;;;;;;;;;;1035771;28;4135;-55
2022/07/26 00:28:17;;;;;;;;;;;;;;;;;;1041001;28;3797;-57
2022/07/26 00:28:47;;;;;;;;;;;;;;;;;;1040246;28;3221;-55
2022/07/26 00:29:17;;;;;;;;;;;;;;;;;;1041099;28;4122;-55
2022/07/26 00:29:54;;;;;;;;;;;;;;;;;;1036623;28;4015;-56
2022/07/26 00:30:24;;;;;;;;;;;;;;;;;;1035385;28;4226;-55
2022/07/26 00:30:55;;;;;;;;;;;;;;;;;;1041387;28;2770;-56
2022/07/26 00:31:25;;;;;;;;;;;;;;;;;;1041161;28;4274;-55
2022/07/26 00:31:55;;;;;;;;;;;;;;;;;;1040771;28;3768;-56
2022/07/26 00:32:26;;;;;;;;;;;;;;;;;;1040375;28;3818;-55
2022/07/26 00:32:56;;;;;;;;;;;;;;;;;;1037335;28;2501;-54
2022/07/26 00:33:26;;;;;;;;;;;;;;;;;;1036175;28;3907;-56
2022/07/26 00:33:56;;;;;;;;;;;;;;;;;;1031695;28;4056;-54
2022/07/26 00:34:27;;;;;;;;;;;;;;;;;;1032680;28;4128;-58
2022/07/26 00:34:57;;;;;;;;;;;;;;;;;;1036042;28;2553;-56
2022/07/26 00:35:27;;;;;;;;;;;;;;;;;;1037034;28;3884;-56
2022/07/26 00:35:57;;;;;;;;;;;;;;;;;;1039816;28;3285;-54
2022/07/26 00:36:34;;;;;;;;;;;;;;;;;;1042603;28;3928;-55
2022/07/26 00:37:04;;;;;;;;;;;;;;;;;;1040957;28;2453;-53
2022/07/26 00:37:34;;;;;;;;;;;;;;;;;;1039832;28;3784;-58
2022/07/26 00:38:05;;;;;;;;;;;;;;;;;;1040700;28;2383;-56
2022/07/26 00:38:35;;;;;;;;;;;;;;;;;;1041048;28;3973;-55
2022/07/26 00:39:05;;;;;;;;;;;;;;;;;;1040418;28;2777;-56
2022/07/26 00:39:36;;;;;;;;;;;;;;;;;;1039933;28;3727;-56
2022/07/26 00:40:06;;;;;;;;;;;;;;;;;;1044284;28;2955;-58
2022/07/26 00:40:37;;;;;;;;;;;;;;;;;;1043819;28;3710;-55
2022/07/26 00:41:08;;;;;;;;;;;;;;;;;;1044475;28;3877;-52
2022/07/26 00:41:38;;;;;;;;;;;;;;;;;;1044083;28;3887;-56
2022/07/26 00:42:08;;;;;;;;;;;;;;;;;;1040882;28;3836;-58
2022/07/26 00:42:39;;;;;;;;;;;;;;;;;;1040899;28;3069;-57
2022/07/26 00:43:09;;;;;;;;;;;;;;;;;;1039529;28;3912;-57
2022/07/26 00:43:58;;;;;;;;;;;;;;;;;;1041396;28;2949;-57
2022/07/26 00:44:38;;;;;;;;;;;;;;;;;;1040168;28;4518;-56
2022/07/26 00:45:09;;;;;;;;;;;;;;;;;;1038528;28;3956;-55
2022/07/26 00:45:40;;;;;;;;;;;;;;;;;;1040889;28;3362;-55
2022/07/26 00:46:10;;;;;;;;;;;;;;;;;;1039564;28;3947;-57
2022/07/26 00:46:41;;;;;;;;;;;;;;;;;;1041773;28;4126;-59
2022/07/26 00:47:12;;;;;;;;;;;;;;;;;;1039255;28;3787;-53
2022/07/26 00:47:42;;;;;;;;;;;;;;;;;;1041137;28;2811;-56
2022/07/26 00:48:13;;;;;;;;;;;;;;;;;;1040574;28;4470;-53
2022/07/26 00:48:43;;;;;;;;;;;;;;;;;;1039921;28;3172;-54
2022/07/26 00:49:13;;;;;;;;;;;;;;;;;;1040897;28;4090;-57
2022/07/26 00:49:44;;;;;;;;;;;;;;;;;;1039735;28;2726;-53
2022/07/26 00:50:15;;;;;;;;;;;;;;;;;;1043913;28;3806;-54
2022/07/26 00:50:45;;;;;;;;;;;;;;;;;;1043358;28;2994;-54
2022/07/26 00:51:15;;;;;;;;;;;;;;;;;;1045599;28;4031;-56
2022/07/26 00:51:46;;;;;;;;;;;;;;;;;;1043820;28;2910;-59
2022/07/26 00:52:16;;;;;;;;;;;;;;;;;;1040607;28;4076;-53
2022/07/26 00:52:47;;;;;;;;;;;;;;;;;;1040002;28;2928;-56
2022/07/26 00:53:18;;;;;;;;;;;;;;;;;;1039674;28;4021;-57
2022/07/26 00:53:48;;;;;;;;;;;;;;;;;;1040831;28;2328;-56
2022/07/26 00:54:19;;;;;;;;;;;;;;;;;;1040550;28;3877;-55
2022/07/26 00:54:50;;;;;;;;;;;;;;;;;;1040652;28;2728;-56
2022/07/26 00:55:20;;;;;;;;;;;;;;;;;;1040683;28;5379;-55
2022/07/26 00:55:51;;;;;;;;;;;;;;;;;;1040789;28;3185;-57
2022/07/26 00:56:21;;;;;;;;;;;;;;;;;;1039889;28;4215;-57
2022/07/26 00:56:52;;;;;;;;;;;;;;;;;;1041126;28;4055;-53
2022/07/26 00:57:22;;;;;;;;;;;;;;;;;;1040569;28;3937;-56
2022/07/26 00:57:53;;;;;;;;;;;;;;;;;;1040289;28;2447;-57
2022/07/26 00:58:23;;;;;;;;;;;;;;;;;;1039531;28;3910;-54
2022/07/26 00:58:53;;;;;;;;;;;;;;;;;;1043678;28;2641;-56
2022/07/26 00:59:24;;;;;;;;;;;;;;;;;;1039862;28;3783;-54
2022/07/26 00:59:54;;;;;;;;;;;;;;;;;;1040877;28;2527;-56
2022/07/26 01:00:27;;;;;;;;;;;;;;;;;;1039838;28;3946;-57
2022/07/26 01:00:58;;;;;;;;;;;;;;;;;;1040941;28;3024;-58
2022/07/26 01:01:28;;;;;;;;;;;;;;;;;;1039408;28;3858;-58
2022/07/26 01:01:58;;;;;;;;;;;;;;;;;;1040911;28;2559;-55
2022/07/26 01:02:28;;;;;;;;;;;;;;;;;;1040595;28;4379;-55
2022/07/26 01:02:59;;;;;;;;;;;;;;;;;;1043023;28;3674;-54
2022/07/26 01:03:29;;;;;;;;;;;;;;;;;;1042977;28;4230;-57
2022/07/26 01:03:59;;;;;;;;;;;;;;;;;;1043909;28;2996;-54
2022/07/26 01:04:30;;;;;;;;;;;;;;;;;;1043414;28;4252;-57
2022/07/26 01:05:00;;;;;;;;;;;;;;;;;;1041033;28;2709;-55
2022/07/26 01:05:37;;;;;;;;;;;;;;;;;;1040038;28;3898;-57
2022/07/26 01:06:08;;;;;;;;;;;;;;;;;;1039007;28;4284;-56
2022/07/26 01:06:38;;;;;;;;;;;;;;;;;;1040488;28;2127;-57
2022/07/26 01:07:08;;;;;;;;;;;;;;;;;;1040714;28;3824;-56
2022/07/26 01:07:39;;;;;;;;;;;;;;;;;;1040284;28;3010;-53
2022/07/26 01:08:10;;;;;;;;;;;;;;;;;;1039807;28;4447;-57
2022/07/26 01:08:40;;;;;;;;;;;;;;;;;;1040464;28;2217;-57
2022/07/26 01:09:10;;;;;;;;;;;;;;;;;;1041196;28;4124;-56
2022/07/26 01:09:41;;;;;;;;;;;;;;;;;;1036069;28;2626;-57
2022/07/26 01:10:12;;;;;;;;;;;;;;;;;;1037000;28;3917;-56
2022/07/26 01:10:42;;;;;;;;;;;;;;;;;;1035065;28;2895;-55
2022/07/26 01:11:13;;;;;;;;;;;;;;;;;;1039624;28;3915;-55
2022/07/26 01:11:44;;;;;;;;;;;;;;;;;;1040888;28;2854;-56
2022/07/26 01:12:14;;;;;;;;;;;;;;;;;;1044489;28;4277;-54
2022/07/26 01:12:45;;;;;;;;;;;;;;;;;;1039083;28;2512;-54
2022/07/26 01:13:19;;;;;;;;;;;;;;;;;;1039591;28;4416;-58
2022/07/26 01:13:50;;;;;;;;;;;;;;;;;;1038773;28;2430;-56
2022/07/26 01:14:23;;;;;;;;;;;;;;;;;;1039328;28;4414;-55
2022/07/26 01:14:53;;;;;;;;;;;;;;;;;;1041578;28;3093;-57
2022/07/26 01:15:24;;;;;;;;;;;;;;;;;;1039791;28;3967;-56
2022/07/26 01:15:54;;;;;;;;;;;;;;;;;;1040036;28;3356;-54
2022/07/26 01:16:24;;;;;;;;;;;;;;;;;;1038205;28;3889;-57
2022/07/26 01:16:54;;;;;;;;;;;;;;;;;;1038899;28;2663;-58
2022/07/26 01:17:25;;;;;;;;;;;;;;;;;;1039850;28;4436;-56
2022/07/26 01:17:55;;;;;;;;;;;;;;;;;;1039437;28;2995;-56
2022/07/26 01:18:25;;;;;;;;;;;;;;;;;;1039648;28;3789;-57
2022/07/26 01:18:55;;;;;;;;;;;;;;;;;;1039909;28;2968;-56
2022/07/26 01:19:28;;;;;;;;;;;;;;;;;;1039212;28;3818;-57
2022/07/26 01:19:59;;;;;;;;;;;;;;;;;;1041468;28;2927;-57
2022/07/26 01:20:29;;;;;;;;;;;;;;;;;;1039572;28;4199;-56
2022/07/26 01:21:00;;;;;;;;;;;;;;;;;;1040354;28;2710;-57
2022/07/26 01:21:32;;;;;;;;;;;;;;;;;;1040044;28;4173;-54
2022/07/26 01:22:02;;;;;;;;;;;;;;;;;;1041416;28;2424;-59
2022/07/26 01:22:32;;;;;;;;;;;;;;;;;;1039725;28;3898;-54
2022/07/26 01:23:02;;;;;;;;;;;;;;;;;;1040193;28;2800;-55
2022/07/26 01:23:33;;;;;;;;;;;;;;;;;;1039536;28;4147;-52
2022/07/26 01:24:03;;;;;;;;;;;;;;;;;;1040397;28;2548;-52
2022/07/26 01:24:34;;;;;;;;;;;;;;;;;;1038690;28;4353;-56
2022/07/26 01:25:04;;;;;;;;;;;;;;;;;;1040904;28;2354;-55
2022/07/26 01:25:35;;;;;;;;;;;;;;;;;;1040243;28;3867;-55
2022/07/26 01:26:06;;;;;;;;;;;;;;;;;;1039376;28;2767;-56
2022/07/26 01:26:36;;;;;;;;;;;;;;;;;;1039019;28;3926;-57
2022/07/26 01:27:06;;;;;;;;;;;;;;;;;;1039557;28;2639;-56
2022/07/26 01:27:39;;;;;;;;;;;;;;;;;;1039818;28;4307;-56
2022/07/26 01:28:10;;;;;;;;;;;;;;;;;;1040332;28;3863;-57
2022/07/26 01:28:40;;;;;;;;;;;;;;;;;;1041287;28;2248;-59
2022/07/26 01:29:10;;;;;;;;;;;;;;;;;;1040316;28;3941;-55
2022/07/26 01:29:41;;;;;;;;;;;;;;;;;;1039766;28;2314;-57
2022/07/26 01:30:11;;;;;;;;;;;;;;;;;;1040142;28;3947;-57
2022/07/26 01:30:42;;;;;;;;;;;;;;;;;;1040268;28;2839;-57
2022/07/26 01:31:12;;;;;;;;;;;;;;;;;;1039119;28;3988;-54
2022/07/26 01:31:42;;;;;;;;;;;;;;;;;;1038532;28;2882;-56
2022/07/26 01:32:13;;;;;;;;;;;;;;;;;;1040292;28;4096;-54
2022/07/26 01:32:43;;;;;;;;;;;;;;;;;;1040111;28;2317;-53
2022/07/26 01:33:13;;;;;;;;;;;;;;;;;;1040880;28;3816;-57
2022/07/26 01:33:44;;;;;;;;;;;;;;;;;;1040052;28;2642;-55
2022/07/26 01:34:14;;;;;;;;;;;;;;;;;;1040631;28;4287;-58
2022/07/26 01:34:44;;;;;;;;;;;;;;;;;;1039758;28;2516;-55
2022/07/26 01:35:15;;;;;;;;;;;;;;;;;;1041505;28;4232;-54
2022/07/26 01:35:45;;;;;;;;;;;;;;;;;;1040223;28;2921;-57
2022/07/26 01:36:15;;;;;;;;;;;;;;;;;;1040098;28;4114;-52
2022/07/26 01:36:59;;;;;;;;;;;;;;;;;;1040495;28;3066;-57
2022/07/26 01:37:36;;;;;;;;;;;;;;;;;;1044628;28;4482;-57
2022/07/26 01:38:06;;;;;;;;;;;;;;;;;;1044825;28;2276;-55
2022/07/26 01:38:37;;;;;;;;;;;;;;;;;;1040367;28;3934;-59
2022/07/26 01:39:07;;;;;;;;;;;;;;;;;;1040161;28;4047;-56
2022/07/26 01:39:38;;;;;;;;;;;;;;;;;;1041631;28;2338;-56
2022/07/26 01:40:09;;;;;;;;;;;;;;;;;;1039264;28;4230;-54
2022/07/26 01:40:39;;;;;;;;;;;;;;;;;;1045593;28;2427;-57
2022/07/26 01:41:10;;;;;;;;;;;;;;;;;;1044394;28;3804;-57
2022/07/26 01:41:40;;;;;;;;;;;;;;;;;;1043563;28;3398;-54
2022/07/26 01:42:10;;;;;;;;;;;;;;;;;;1042575;28;4169;-56
2022/07/26 01:42:41;;;;;;;;;;;;;;;;;;1044640;28;2237;-55
2022/07/26 01:43:11;;;;;;;;;;;;;;;;;;1042970;28;4101;-55
2022/07/26 01:43:41;;;;;;;;;;;;;;;;;;1044637;28;2466;-58
2022/07/26 01:44:12;;;;;;;;;;;;;;;;;;1043694;28;4209;-56
2022/07/26 01:44:42;;;;;;;;;;;;;;;;;;1044507;28;2972;-57
2022/07/26 01:45:12;;;;;;;;;;;;;;;;;;1038058;28;3850;-55
2022/07/26 01:45:43;;;;;;;;;;;;;;;;;;1040116;28;2451;-56
2022/07/26 01:46:13;;;;;;;;;;;;;;;;;;1038871;28;3968;-57
2022/07/26 01:46:43;;;;;;;;;;;;;;;;;;1039548;28;3199;-56
2022/07/26 01:47:13;;;;;;;;;;;;;;;;;;1044372;28;3907;-56
2022/07/26 01:47:48;;;;;;;;;;;;;;;;;;1043586;28;2912;-54
2022/07/26 01:48:19;;;;;;;;;;;;;;;;;;1044598;28;3870;-53
2022/07/26 01:48:50;;;;;;;;;;;;;;;;;;1040589;28;2794;-55
2022/07/26 01:49:20;;;;;;;;;;;;;;;;;;1040412;28;3835;-54
2022/07/26 01:49:51;;;;;;;;;;;;;;;;;;1040568;28;2355;-57
2022/07/26 01:50:21;;;;;;;;;;;;;;;;;;1035368;28;3942;-56
2022/07/26 01:50:51;;;;;;;;;;;;;;;;;;1038646;28;3548;-58
2022/07/26 01:51:21;;;;;;;;;;;;;;;;;;1039472;28;4296;-56
2022/07/26 01:51:52;;;;;;;;;;;;;;;;;;1039260;28;3057;-57
2022/07/26 01:52:22;;;;;;;;;;;;;;;;;;1043851;28;4063;-57
2022/07/26 01:52:52;;;;;;;;;;;;;;;;;;1043920;28;2403;-56
2022/07/26 01:53:22;;;;;;;;;;;;;;;;;;1043085;28;4285;-56
2022/07/26 01:53:53;;;;;;;;;;;;;;;;;;1044748;28;2887;-56
2022/07/26 01:54:23;;;;;;;;;;;;;;;;;;1042570;28;5956;-57
2022/07/26 01:54:53;;;;;;;;;;;;;;;;;;1044973;28;3412;-57
2022/07/26 01:55:23;;;;;;;;;;;;;;;;;;1044073;28;4239;-55
2022/07/26 01:55:54;;;;;;;;;;;;;;;;;;1044886;28;3346;-57
2022/07/26 01:56:31;;;;;;;;;;;;;;;;;;1044182;28;3855;-56
2022/07/26 01:57:02;;;;;;;;;;;;;;;;;;1037985;28;4065;-57
2022/07/26 01:57:32;;;;;;;;;;;;;;;;;;1038503;28;3859;-56
2022/07/26 01:58:03;;;;;;;;;;;;;;;;;;1038426;28;2748;-56
2022/07/26 01:58:34;;;;;;;;;;;;;;;;;;1039554;28;4037;-57
2022/07/26 01:59:04;;;;;;;;;;;;;;;;;;1040180;28;3116;-56
2022/07/26 01:59:34;;;;;;;;;;;;;;;;;;1038925;28;3785;-53
2022/07/26 02:00:06;;;;;;;;;;;;;;;;;;1039004;28;3877;-56
2022/07/26 02:00:36;;;;;;;;;;;;;;;;;;1039036;28;3952;-52
2022/07/26 02:01:07;;;;;;;;;;;;;;;;;;1041071;28;3519;-56
2022/07/26 02:01:37;;;;;;;;;;;;;;;;;;1039588;28;3779;-55
2022/07/26 02:02:08;;;;;;;;;;;;;;;;;;1041590;28;3949;-58
2022/07/26 02:02:38;;;;;;;;;;;;;;;;;;1044218;28;2594;-54
2022/07/26 02:03:08;;;;;;;;;;;;;;;;;;1043721;28;3835;-55
2022/07/26 02:03:39;;;;;;;;;;;;;;;;;;1043874;28;2723;-57
2022/07/26 02:04:57;;;;;;;;;;;;;;;;;;1044386;28;4031;-58
2022/07/26 02:05:00;;;;;;;;;;;;;;;;;;1043966;28;3402;-58
2022/07/26 02:05:30;;;;;;;;;;;;;;;;;;1037658;28;4295;-55
2022/07/26 02:06:01;;;;;;;;;;;;;;;;;;1039334;28;2589;-57
2022/07/26 02:06:31;;;;;;;;;;;;;;;;;;1038593;28;3866;-58
2022/07/26 02:07:01;;;;;;;;;;;;;;;;;;1040000;28;2626;-57
2022/07/26 02:07:35;;;;;;;;;;;;;;;;;;1044131;28;4005;-58
2022/07/26 02:08:06;;;;;;;;;;;;;;;;;;1043924;28;3488;-56
2022/07/26 02:08:36;;;;;;;;;;;;;;;;;;1044128;28;3872;-58
2022/07/26 02:09:06;;;;;;;;;;;;;;;;;;1039894;28;2710;-58
2022/07/26 02:09:37;;;;;;;;;;;;;;;;;;1038082;28;4098;-57
2022/07/26 02:10:08;;;;;;;;;;;;;;;;;;1036803;28;3889;-54
2022/07/26 02:11:27;;;;;;;;;;;;;;;;;;1040390;28;4052;-57
2022/07/26 02:11:57;;;;;;;;;;;;;;;;;;1041309;28;3694;-57
2022/07/26 02:12:28;;;;;;;;;;;;;;;;;;1043357;28;4583;-58
2022/07/26 02:12:58;;;;;;;;;;;;;;;;;;1044468;28;3736;-56
2022/07/26 02:13:28;;;;;;;;;;;;;;;;;;1039003;28;3870;-57
2022/07/26 02:13:59;;;;;;;;;;;;;;;;;;1038946;28;3623;-57
2022/07/26 02:14:29;;;;;;;;;;;;;;;;;;1039376;28;4231;-54
2022/07/26 02:14:59;;;;;;;;;;;;;;;;;;1040002;28;3510;-57
2022/07/26 02:15:30;;;;;;;;;;;;;;;;;;1043998;28;3925;-56
2022/07/26 02:16:01;;;;;;;;;;;;;;;;;;1044892;28;2041;-54
2022/07/26 02:16:32;;;;;;;;;;;;;;;;;;1039844;28;4158;-55
2022/07/26 02:17:02;;;;;;;;;;;;;;;;;;1040712;28;3387;-58
2022/07/26 02:17:32;;;;;;;;;;;;;;;;;;1039567;28;4031;-58
2022/07/26 02:18:03;;;;;;;;;;;;;;;;;;1039368;28;2887;-53
2022/07/26 02:18:33;;;;;;;;;;;;;;;;;;1044264;28;3838;-57
2022/07/26 02:19:04;;;;;;;;;;;;;;;;;;1044469;28;2296;-55
2022/07/26 02:19:34;;;;;;;;;;;;;;;;;;1045177;28;4341;-56
2022/07/26 02:20:05;;;;;;;;;;;;;;;;;;1043427;28;2924;-55
2022/07/26 02:20:35;;;;;;;;;;;;;;;;;;1044021;28;4447;-57
2022/07/26 02:21:06;;;;;;;;;;;;;;;;;;1044920;28;2473;-58
2022/07/26 02:21:36;;;;;;;;;;;;;;;;;;1042429;28;4013;-57
2022/07/26 02:22:06;;;;;;;;;;;;;;;;;;1040574;28;4218;-55
2022/07/26 02:22:37;;;;;;;;;;;;;;;;;;1042618;28;3938;-58
2022/07/26 02:23:07;;;;;;;;;;;;;;;;;;1043991;28;4123;-55
2022/07/26 02:23:37;;;;;;;;;;;;;;;;;;1043784;28;3314;-57
2022/07/26 02:24:08;;;;;;;;;;;;;;;;;;1042915;28;3989;-53
2022/07/26 02:24:38;;;;;;;;;;;;;;;;;;1044351;28;3305;-55
2022/07/26 02:25:09;;;;;;;;;;;;;;;;;;1043472;28;4188;-58
2022/07/26 02:25:39;;;;;;;;;;;;;;;;;;1044366;28;3700;-56
2022/07/26 02:26:09;;;;;;;;;;;;;;;;;;1038471;28;4119;-57
2022/07/26 02:26:39;;;;;;;;;;;;;;;;;;1039150;28;3256;-56
2022/07/26 02:27:10;;;;;;;;;;;;;;;;;;1038833;28;3891;-58
2022/07/26 02:27:40;;;;;;;;;;;;;;;;;;1040107;28;3142;-57
2022/07/26 02:28:10;;;;;;;;;;;;;;;;;;1042093;28;5181;-58
2022/07/26 02:28:40;;;;;;;;;;;;;;;;;;1044742;28;3516;-57
2022/07/26 02:29:11;;;;;;;;;;;;;;;;;;1040580;28;4300;-57
2022/07/26 02:29:41;;;;;;;;;;;;;;;;;;1045282;28;3277;-57
2022/07/26 02:30:12;;;;;;;;;;;;;;;;;;1044209;28;4016;-57
2022/07/26 02:30:43;;;;;;;;;;;;;;;;;;1041859;28;3026;-57
2022/07/26 02:31:13;;;;;;;;;;;;;;;;;;1043384;28;4925;-56
2022/07/26 02:31:43;;;;;;;;;;;;;;;;;;1041656;28;3120;-57
2022/07/26 02:32:13;;;;;;;;;;;;;;;;;;1044549;28;4228;-56
2022/07/26 02:32:44;;;;;;;;;;;;;;;;;;1043945;28;3242;-57
2022/07/26 02:33:14;;;;;;;;;;;;;;;;;;1044613;28;3807;-57
2022/07/26 02:33:44;;;;;;;;;;;;;;;;;;1043453;28;2552;-56
2022/07/26 02:34:15;;;;;;;;;;;;;;;;;;1045047;28;4214;-57
2022/07/26 02:34:46;;;;;;;;;;;;;;;;;;1043112;28;2774;-57
2022/07/26 02:35:16;;;;;;;;;;;;;;;;;;1045103;28;4125;-57
2022/07/26 02:35:47;;;;;;;;;;;;;;;;;;1043844;28;3770;-55
2022/07/26 02:36:17;;;;;;;;;;;;;;;;;;1044523;28;4349;-56
2022/07/26 02:37:01;;;;;;;;;;;;;;;;;;1038680;28;3338;-55
2022/07/26 02:37:41;;;;;;;;;;;;;;;;;;1039930;28;3673;-56
2022/07/26 02:38:14;;;;;;;;;;;;;;;;;;1040770;28;4071;-56
2022/07/26 02:38:44;;;;;;;;;;;;;;;;;;1040590;28;3070;-55
2022/07/26 02:39:15;;;;;;;;;;;;;;;;;;1040434;28;3810;-55
2022/07/26 02:39:45;;;;;;;;;;;;;;;;;;1040139;28;3183;-54
2022/07/26 02:40:15;;;;;;;;;;;;;;;;;;1041651;28;4227;-53
2022/07/26 02:40:46;;;;;;;;;;;;;;;;;;1040656;28;3185;-56
2022/07/26 02:41:16;;;;;;;;;;;;;;;;;;1039832;28;3990;-56
2022/07/26 02:41:47;;;;;;;;;;;;;;;;;;1039271;28;3304;-57
2022/07/26 02:42:17;;;;;;;;;;;;;;;;;;1040683;28;3940;-54
2022/07/26 02:42:48;;;;;;;;;;;;;;;;;;1040392;28;2594;-57
2022/07/26 02:43:18;;;;;;;;;;;;;;;;;;1038886;28;4070;-55
2022/07/26 02:43:48;;;;;;;;;;;;;;;;;;1044006;28;3660;-52
2022/07/26 02:44:19;;;;;;;;;;;;;;;;;;1044363;28;4451;-55
2022/07/26 02:44:49;;;;;;;;;;;;;;;;;;1044579;28;2384;-56
2022/07/26 02:45:20;;;;;;;;;;;;;;;;;;1044135;28;3969;-56
2022/07/26 02:45:50;;;;;;;;;;;;;;;;;;1043778;28;2548;-56
2022/07/26 02:46:20;;;;;;;;;;;;;;;;;;1044099;28;4205;-54
2022/07/26 02:46:57;;;;;;;;;;;;;;;;;;1042192;28;3228;-54
2022/07/26 02:47:27;;;;;;;;;;;;;;;;;;1040783;28;4422;-53
2022/07/26 02:47:58;;;;;;;;;;;;;;;;;;1040419;28;3055;-56
2022/07/26 02:48:29;;;;;;;;;;;;;;;;;;1041065;28;4079;-51
2022/07/26 02:48:59;;;;;;;;;;;;;;;;;;1039984;28;3088;-54
2022/07/26 02:49:30;;;;;;;;;;;;;;;;;;1040136;28;3759;-56
2022/07/26 02:50:00;;;;;;;;;;;;;;;;;;1039448;28;2713;-51
2022/07/26 02:50:30;;;;;;;;;;;;;;;;;;1040579;28;4256;-55
2022/07/26 02:51:01;;;;;;;;;;;;;;;;;;1041537;28;1511;-57
2022/07/26 02:51:31;;;;;;;;;;;;;;;;;;1039841;28;3810;-55
2022/07/26 02:52:02;;;;;;;;;;;;;;;;;;1039696;28;3774;-55
2022/07/26 02:52:32;;;;;;;;;;;;;;;;;;1040229;28;3907;-55
2022/07/26 02:53:02;;;;;;;;;;;;;;;;;;1041047;28;3634;-56
2022/07/26 02:53:32;;;;;;;;;;;;;;;;;;1038928;28;3884;-55
2022/07/26 02:54:03;;;;;;;;;;;;;;;;;;1041332;28;2911;-57
2022/07/26 02:54:33;;;;;;;;;;;;;;;;;;1039969;28;4393;-52
2022/07/26 02:55:03;;;;;;;;;;;;;;;;;;1040102;28;3449;-53
2022/07/26 02:55:34;;;;;;;;;;;;;;;;;;1040438;28;4174;-53
2022/07/26 02:56:04;;;;;;;;;;;;;;;;;;1041143;28;2649;-54
2022/07/26 02:56:34;;;;;;;;;;;;;;;;;;1040752;28;3768;-57
2022/07/26 02:57:05;;;;;;;;;;;;;;;;;;1039905;28;2870;-54
2022/07/26 02:57:35;;;;;;;;;;;;;;;;;;1040717;28;4055;-57
2022/07/26 02:58:05;;;;;;;;;;;;;;;;;;1040797;28;2591;-54
2022/07/26 02:58:36;;;;;;;;;;;;;;;;;;1039700;28;3840;-55
2022/07/26 02:59:07;;;;;;;;;;;;;;;;;;1040025;28;3915;-55
2022/07/26 02:59:37;;;;;;;;;;;;;;;;;;1038857;28;3915;-58
2022/07/26 03:00:09;;;;;;;;;;;;;;;;;;1040090;28;4369;-55
2022/07/26 03:00:39;;;;;;;;;;;;;;;;;;1040479;28;4097;-56
2022/07/26 03:01:10;;;;;;;;;;;;;;;;;;1041646;28;4465;-56
2022/07/26 03:01:40;;;;;;;;;;;;;;;;;;1040433;28;2747;-56
2022/07/26 03:02:10;;;;;;;;;;;;;;;;;;1039669;28;3983;-55
2022/07/26 03:02:41;;;;;;;;;;;;;;;;;;1040367;28;3062;-55
2022/07/26 03:03:12;;;;;;;;;;;;;;;;;;1040889;28;3948;-55
2022/07/26 03:03:43;;;;;;;;;;;;;;;;;;1038702;28;2872;-57
2022/07/26 03:04:13;;;;;;;;;;;;;;;;;;1041551;28;4019;-55
2022/07/26 03:04:43;;;;;;;;;;;;;;;;;;1039731;28;2584;-53
2022/07/26 03:05:13;;;;;;;;;;;;;;;;;;1039806;28;4049;-56
2022/07/26 03:05:44;;;;;;;;;;;;;;;;;;1041171;28;2727;-52
2022/07/26 03:06:14;;;;;;;;;;;;;;;;;;1041452;28;3782;-57
2022/07/26 03:06:44;;;;;;;;;;;;;;;;;;1040175;28;2505;-57
2022/07/26 03:07:15;;;;;;;;;;;;;;;;;;1040435;28;3886;-55
2022/07/26 03:07:46;;;;;;;;;;;;;;;;;;1040892;28;2354;-57
2022/07/26 03:08:16;;;;;;;;;;;;;;;;;;1039243;28;3980;-53
2022/07/26 03:08:47;;;;;;;;;;;;;;;;;;1040550;28;3256;-55
2022/07/26 03:09:17;;;;;;;;;;;;;;;;;;1041020;28;3822;-56
2022/07/26 03:09:48;;;;;;;;;;;;;;;;;;1039568;28;2762;-54
2022/07/26 03:10:19;;;;;;;;;;;;;;;;;;1040654;28;3883;-56
2022/07/26 03:10:49;;;;;;;;;;;;;;;;;;1040665;28;2934;-55
2022/07/26 03:11:19;;;;;;;;;;;;;;;;;;1041184;28;3871;-54
2022/07/26 03:11:49;;;;;;;;;;;;;;;;;;1039835;28;2879;-55
2022/07/26 03:12:20;;;;;;;;;;;;;;;;;;1041246;28;4407;-57
2022/07/26 03:12:50;;;;;;;;;;;;;;;;;;1040330;28;2424;-54
2022/07/26 03:13:20;;;;;;;;;;;;;;;;;;1041215;28;3901;-54
2022/07/26 03:13:50;;;;;;;;;;;;;;;;;;1040217;28;2770;-57
2022/07/26 03:14:21;;;;;;;;;;;;;;;;;;1040325;28;3876;-57
2022/07/26 03:14:51;;;;;;;;;;;;;;;;;;1040134;28;2676;-55
2022/07/26 03:15:22;;;;;;;;;;;;;;;;;;1040100;28;3866;-54
2022/07/26 03:15:52;;;;;;;;;;;;;;;;;;1040788;28;2683;-56
2022/07/26 03:16:22;;;;;;;;;;;;;;;;;;1040423;28;3780;-56
2022/07/26 03:16:53;;;;;;;;;;;;;;;;;;1040595;28;2728;-56
2022/07/26 03:17:23;;;;;;;;;;;;;;;;;;1041163;28;3789;-56
2022/07/26 03:17:54;;;;;;;;;;;;;;;;;;1039905;28;3404;-57
2022/07/26 03:18:24;;;;;;;;;;;;;;;;;;1041518;28;4399;-54
2022/07/26 03:18:54;;;;;;;;;;;;;;;;;;1040849;28;2363;-57
2022/07/26 03:19:25;;;;;;;;;;;;;;;;;;1041198;28;3793;-54
2022/07/26 03:19:55;;;;;;;;;;;;;;;;;;1040825;28;2633;-55
2022/07/26 03:20:25;;;;;;;;;;;;;;;;;;1041066;28;3797;-55
2022/07/26 03:20:55;;;;;;;;;;;;;;;;;;1041715;28;3517;-56
2022/07/26 03:21:26;;;;;;;;;;;;;;;;;;1041702;28;3794;-57
2022/07/26 03:21:56;;;;;;;;;;;;;;;;;;1041106;28;3271;-54
2022/07/26 03:22:26;;;;;;;;;;;;;;;;;;1041423;28;4010;-56
2022/07/26 03:22:57;;;;;;;;;;;;;;;;;;1042517;28;1757;-55
2022/07/26 03:23:27;;;;;;;;;;;;;;;;;;1041788;28;3861;-55
2022/07/26 03:23:57;;;;;;;;;;;;;;;;;;1041752;28;2391;-52
2022/07/26 03:24:28;;;;;;;;;;;;;;;;;;1042182;28;4078;-56
2022/07/26 03:24:58;;;;;;;;;;;;;;;;;;1040756;28;2657;-55
2022/07/26 03:25:28;;;;;;;;;;;;;;;;;;1041578;28;3799;-52
2022/07/26 03:26:00;;;;;;;;;;;;;;;;;;1033052;28;2424;-56
2022/07/26 03:26:30;;;;;;;;;;;;;;;;;;1031908;28;3872;-55
2022/07/26 03:27:01;;;;;;;;;;;;;;;;;;1035350;28;4227;-57
2022/07/26 03:27:31;;;;;;;;;;;;;;;;;;1036475;28;3783;-55
2022/07/26 03:28:01;;;;;;;;;;;;;;;;;;1040751;28;3105;-56
2022/07/26 03:28:32;;;;;;;;;;;;;;;;;;1040491;28;3755;-56
2022/07/26 03:29:02;;;;;;;;;;;;;;;;;;1036204;28;2829;-55
2022/07/26 03:29:33;;;;;;;;;;;;;;;;;;1038068;28;3763;-55
2022/07/26 03:30:04;;;;;;;;;;;;;;;;;;1041540;28;3322;-56
2022/07/26 03:30:34;;;;;;;;;;;;;;;;;;1041797;28;3746;-57
2022/07/26 03:31:04;;;;;;;;;;;;;;;;;;1040886;28;2589;-54
2022/07/26 03:31:35;;;;;;;;;;;;;;;;;;1041009;28;3922;-53
2022/07/26 03:32:05;;;;;;;;;;;;;;;;;;1041496;28;2359;-53
2022/07/26 03:32:35;;;;;;;;;;;;;;;;;;1041241;28;4036;-57
2022/07/26 03:33:06;;;;;;;;;;;;;;;;;;1041186;28;2974;-56
2022/07/26 03:33:36;;;;;;;;;;;;;;;;;;1040189;28;3720;-53
2022/07/26 03:34:06;;;;;;;;;;;;;;;;;;1042209;28;2942;-55
2022/07/26 03:34:36;;;;;;;;;;;;;;;;;;1040744;28;3855;-54
2022/07/26 03:35:07;;;;;;;;;;;;;;;;;;1042033;28;2360;-57